createdAt,value
2019-01-20T00:00:11.665Z,90.90
2019-01-20T00:02:40.310Z,91.00
2019-01-20T00:05:12.187Z,91.30
2019-01-20T00:07:41.029Z,91.50
2019-01-20T00:10:11.539Z,91.40
2019-01-20T00:12:40.113Z,91.50
2019-01-20T00:15:12.227Z,91.60
2019-01-20T00:17:40.866Z,91.70
2019-01-20T00:20:09.888Z,91.80
2019-01-20T00:22:38.450Z,91.50
2019-01-20T00:25:09.281Z,91.40
2019-01-20T00:27:38.010Z,90.30
2019-01-20T00:30:09.706Z,90.10
2019-01-20T00:32:38.274Z,89.20
2019-01-20T00:35:07.310Z,90.00
2019-01-20T00:37:36.087Z,87.50
2019-01-20T00:40:08.254Z,87.50
2019-01-20T00:42:36.894Z,85.70
2019-01-20T00:45:08.438Z,85.30
2019-01-20T00:47:37.026Z,81.70
2019-01-20T00:50:26.454Z,80.70
2019-01-20T00:52:55.105Z,80.00
2019-01-20T00:55:23.802Z,79.60
2019-01-20T00:57:52.698Z,79.30
2019-01-20T01:00:24.477Z,78.10
2019-01-20T01:02:53.590Z,78.10
2019-01-20T01:05:22.493Z,78.70
2019-01-20T01:07:52.006Z,76.20
2019-01-20T01:10:20.926Z,77.50
2019-01-20T01:13:10.350Z,73.50
2019-01-20T01:15:39.046Z,75.00
2019-01-20T01:18:09.750Z,75.40
2019-01-20T01:20:40.463Z,76.70
2019-01-20T01:23:09.054Z,76.60
2019-01-20T01:25:37.804Z,77.30
2019-01-20T01:28:06.762Z,77.00
2019-01-20T01:30:35.798Z,76.70
2019-01-20T01:33:04.956Z,77.30
2019-01-20T01:35:33.553Z,77.80
2019-01-20T01:38:02.146Z,76.20
2019-01-20T01:40:30.786Z,76.20
2019-01-20T01:42:59.760Z,74.20
2019-01-20T01:45:28.411Z,74.40
2019-01-20T01:47:57.042Z,73.70
2019-01-20T01:50:25.682Z,74.90
2019-01-20T01:52:54.332Z,74.40
2019-01-20T01:55:23.318Z,73.20
2019-01-20T01:57:51.910Z,73.80
2019-01-20T02:00:22.229Z,73.60
2019-01-20T02:02:51.003Z,74.10
2019-01-20T02:05:20.030Z,72.60
2019-01-20T02:07:50.155Z,73.00
2019-01-20T02:10:20.330Z,75.20
2019-01-20T02:12:49.829Z,73.70
2019-01-20T02:15:20.545Z,74.60
2019-01-20T02:17:49.350Z,74.70
2019-01-20T02:20:24.117Z,74.60
2019-01-20T02:22:53.665Z,73.00
2019-01-20T02:25:22.372Z,72.90
2019-01-20T02:27:53.738Z,74.20
2019-01-20T02:30:26.212Z,74.00
2019-01-20T02:32:55.118Z,74.20
2019-01-20T02:35:25.573Z,73.70
2019-01-20T02:37:54.187Z,74.50
2019-01-20T02:40:22.851Z,73.20
2019-01-20T02:42:51.678Z,74.60
2019-01-20T02:45:20.443Z,74.30
2019-01-20T02:47:49.077Z,72.20
2019-01-20T02:50:18.925Z,72.50
2019-01-20T02:52:47.634Z,72.00
2019-01-20T02:55:17.050Z,71.60
2019-01-20T02:57:45.761Z,72.50
2019-01-20T03:00:19.552Z,72.10
2019-01-20T03:02:48.458Z,72.80
2019-01-20T03:05:17.574Z,72.90
2019-01-20T03:07:46.217Z,73.70
2019-01-20T03:10:15.734Z,73.70
2019-01-20T03:12:44.410Z,73.90
2019-01-20T03:15:14.222Z,74.50
2019-01-20T03:17:42.870Z,74.10
2019-01-20T03:20:14.518Z,74.30
2019-01-20T03:22:43.165Z,74.60
2019-01-20T03:25:13.976Z,76.00
2019-01-20T03:27:42.729Z,75.90
2019-01-20T03:30:16.852Z,75.20
2019-01-20T03:32:45.487Z,75.00
2019-01-20T03:35:15.893Z,74.80
2019-01-20T03:37:44.819Z,75.00
2019-01-20T03:40:16.638Z,75.70
2019-01-20T03:42:45.450Z,74.80
2019-01-20T03:45:16.264Z,74.60
2019-01-20T03:47:45.041Z,75.00
2019-01-20T03:50:15.831Z,74.70
2019-01-20T03:52:44.634Z,75.50
2019-01-20T03:55:15.257Z,75.80
2019-01-20T03:57:43.990Z,75.90
2019-01-20T04:00:17.524Z,76.20
2019-01-20T04:02:47.794Z,75.40
2019-01-20T04:05:16.502Z,76.60
2019-01-20T04:07:45.082Z,75.20
2019-01-20T04:10:15.699Z,76.10
2019-01-20T04:12:44.410Z,76.00
2019-01-20T04:15:14.793Z,76.30
2019-01-20T04:17:43.642Z,75.70
2019-01-20T04:20:16.026Z,77.10
2019-01-20T04:22:44.652Z,76.70
2019-01-20T04:25:16.066Z,76.70
2019-01-20T04:27:44.737Z,77.70
2019-01-20T04:30:15.839Z,78.10
2019-01-20T04:32:44.406Z,77.80
2019-01-20T04:35:13.322Z,77.60
2019-01-20T04:37:42.081Z,77.30
2019-01-20T04:40:18.814Z,77.70
2019-01-20T04:42:47.545Z,78.30
2019-01-20T04:45:16.193Z,77.70
2019-01-20T04:47:45.402Z,75.80
2019-01-20T04:50:19.791Z,76.30
2019-01-20T04:52:48.431Z,76.30
2019-01-20T04:55:17.359Z,76.90
2019-01-20T04:57:47.647Z,77.50
2019-01-20T05:00:21.587Z,76.60
2019-01-20T05:02:50.154Z,77.30
2019-01-20T05:05:19.394Z,78.40
2019-01-20T05:07:48.090Z,77.70
2019-01-20T05:10:18.399Z,78.90
2019-01-20T05:12:47.129Z,78.20
2019-01-20T05:15:21.237Z,79.40
2019-01-20T05:17:50.230Z,79.90
2019-01-20T05:20:19.137Z,80.70
2019-01-20T05:22:47.783Z,79.80
2019-01-20T05:25:16.812Z,79.60
2019-01-20T05:27:45.435Z,80.10
2019-01-20T05:30:18.810Z,80.60
2019-01-20T05:32:47.378Z,80.20
2019-01-20T05:35:16.030Z,80.80
2019-01-20T05:37:44.669Z,80.40
2019-01-20T05:40:17.348Z,82.10
2019-01-20T05:42:46.783Z,82.60
2019-01-20T05:45:18.269Z,83.30
2019-01-20T05:47:46.908Z,83.50
2019-01-20T05:50:16.119Z,83.60
2019-01-20T05:52:44.858Z,84.20
2019-01-20T05:55:14.767Z,83.80
2019-01-20T05:57:43.514Z,83.40
2019-01-20T06:00:23.565Z,84.20
2019-01-20T06:02:52.220Z,84.10
2019-01-20T06:05:20.849Z,83.60
2019-01-20T06:07:49.666Z,84.00
2019-01-20T06:10:18.374Z,85.20
2019-01-20T06:12:53.910Z,84.50
2019-01-20T06:15:39.203Z,84.70
2019-01-20T06:18:07.938Z,85.00
2019-01-20T06:20:36.623Z,84.90
2019-01-20T06:23:05.326Z,84.70
2019-01-20T06:25:33.980Z,84.60
2019-01-20T06:28:02.617Z,84.80
2019-01-20T06:30:31.835Z,84.50
2019-01-20T06:33:00.475Z,84.40
2019-01-20T06:35:29.221Z,84.10
2019-01-20T06:37:57.938Z,83.90
2019-01-20T06:40:26.598Z,85.20
2019-01-20T06:43:01.853Z,85.70
2019-01-20T06:45:25.598Z,84.80
2019-01-20T06:47:54.313Z,84.80
2019-01-20T06:50:23.218Z,84.50
2019-01-20T06:52:51.799Z,84.70
2019-01-20T06:55:21.809Z,85.20
2019-01-20T06:57:50.513Z,85.60
2019-01-20T07:00:21.222Z,85.30
2019-01-20T07:02:49.954Z,84.80
2019-01-20T07:05:19.166Z,84.80
2019-01-20T07:07:47.882Z,84.20
2019-01-20T07:10:18.101Z,84.50
2019-01-20T07:12:46.714Z,85.10
2019-01-20T07:15:19.941Z,85.50
2019-01-20T07:17:48.662Z,85.50
2019-01-20T07:20:17.378Z,85.90
2019-01-20T07:22:46.086Z,85.40
2019-01-20T07:25:14.877Z,86.00
2019-01-20T07:27:43.582Z,86.40
2019-01-20T07:30:17.510Z,85.90
2019-01-20T07:32:46.157Z,85.80
2019-01-20T07:35:15.364Z,85.90
2019-01-20T07:37:44.082Z,86.20
2019-01-20T07:40:18.055Z,86.50
2019-01-20T07:42:46.776Z,86.90
2019-01-20T07:45:16.779Z,87.50
2019-01-20T07:47:45.425Z,87.30
2019-01-20T07:50:16.530Z,87.40
2019-01-20T07:52:45.305Z,87.10
2019-01-20T07:55:13.947Z,87.50
2019-01-20T07:57:42.587Z,87.40
2019-01-20T08:00:14.042Z,87.10
2019-01-20T08:02:42.678Z,87.20
2019-01-20T08:05:11.926Z,86.50
2019-01-20T08:07:40.498Z,86.00
2019-01-20T08:10:14.582Z,85.60
2019-01-20T08:12:43.289Z,85.70
2019-01-20T08:15:13.709Z,85.80
2019-01-20T08:17:42.316Z,85.90
2019-01-20T08:20:16.567Z,85.60
2019-01-20T08:22:45.196Z,85.90
2019-01-20T08:25:15.806Z,86.20
2019-01-20T08:27:44.454Z,84.50
2019-01-20T08:30:15.738Z,81.30
2019-01-20T08:32:44.457Z,78.20
2019-01-20T08:35:32.366Z,74.00
2019-01-20T08:38:00.946Z,70.50
2019-01-20T08:40:29.949Z,67.60
2019-01-20T08:42:58.663Z,63.80
2019-01-20T08:45:51.338Z,60.00
2019-01-20T08:48:24.628Z,57.50
2019-01-20T08:50:54.442Z,55.10
2019-01-20T08:53:23.156Z,53.50
2019-01-20T08:55:51.958Z,51.30
2019-01-20T08:58:20.706Z,48.90
2019-01-20T09:00:49.360Z,47.30
2019-01-20T09:03:17.918Z,46.80
2019-01-20T09:05:47.979Z,44.40
2019-01-20T09:08:16.724Z,43.70
2019-01-20T09:10:46.302Z,41.10
2019-01-20T09:13:15.034Z,41.20
2019-01-20T09:15:43.638Z,40.60
2019-01-20T09:18:12.266Z,41.00
2019-01-20T09:20:40.842Z,39.60
2019-01-20T09:23:09.730Z,40.40
2019-01-20T09:25:38.398Z,41.30
2019-01-20T09:28:07.263Z,42.80
2019-01-20T09:30:36.267Z,43.30
2019-01-20T09:33:05.450Z,43.40
2019-01-20T09:35:36.109Z,43.40
2019-01-20T09:38:05.530Z,45.20
2019-01-20T09:40:34.258Z,46.60
2019-01-20T09:43:04.477Z,47.20
2019-01-20T09:45:36.115Z,46.90
2019-01-20T09:48:05.442Z,46.80
2019-01-20T09:50:34.086Z,48.00
2019-01-20T09:53:04.232Z,49.90
2019-01-20T09:55:33.152Z,50.60
2019-01-20T09:58:02.877Z,51.50
2019-01-20T10:00:34.169Z,52.70
2019-01-20T10:03:02.792Z,52.70
2019-01-20T10:08:07.002Z,52.80
2019-01-20T10:10:35.786Z,51.70
2019-01-20T10:13:04.380Z,52.50
2019-01-20T10:15:33.789Z,52.90
2019-01-20T10:18:02.590Z,51.70
2019-01-20T10:20:32.923Z,53.30
2019-01-20T10:23:01.851Z,52.70
2019-01-20T10:25:30.495Z,52.70
2019-01-20T10:27:59.154Z,50.90
2019-01-20T10:30:32.865Z,51.00
2019-01-20T10:33:04.234Z,50.70
2019-01-20T10:35:34.925Z,50.00
2019-01-20T10:38:08.230Z,49.40
2019-01-20T10:40:36.942Z,50.30
2019-01-20T10:43:05.946Z,49.60
2019-01-20T10:45:34.686Z,49.90
2019-01-20T10:48:03.594Z,50.00
2019-01-20T10:50:32.338Z,49.60
2019-01-20T10:53:01.070Z,49.80
2019-01-20T10:55:29.666Z,50.60
2019-01-20T10:57:58.373Z,49.70
2019-01-20T11:00:30.026Z,49.90
2019-01-20T11:02:58.637Z,49.30
2019-01-20T11:05:30.520Z,49.40
2019-01-20T11:07:57.941Z,48.70
2019-01-20T11:10:26.647Z,48.60
2019-01-20T11:12:55.490Z,48.20
2019-01-20T11:15:24.119Z,48.40
2019-01-20T11:17:52.969Z,49.00
2019-01-20T11:20:25.354Z,47.80
2019-01-20T11:22:54.666Z,47.70
2019-01-20T11:25:26.447Z,46.80
2019-01-20T11:27:55.010Z,47.90
2019-01-20T11:30:23.672Z,46.10
2019-01-20T11:32:52.309Z,46.30
2019-01-20T11:35:22.672Z,46.80
2019-01-20T11:37:51.505Z,47.00
2019-01-20T11:40:20.145Z,46.90
2019-01-20T11:42:48.861Z,48.30
2019-01-20T11:45:23.118Z,46.20
2019-01-20T11:47:51.822Z,47.50
2019-01-20T11:50:20.698Z,47.90
2019-01-20T11:52:49.514Z,47.80
2019-01-20T11:55:22.958Z,47.50
2019-01-20T11:57:51.763Z,46.80
2019-01-20T12:00:29.383Z,47.20
2019-01-20T12:02:58.194Z,48.30
2019-01-20T12:05:26.830Z,48.50
2019-01-20T12:07:55.418Z,49.40
2019-01-20T12:10:24.286Z,49.00
2019-01-20T12:13:00.506Z,47.40
2019-01-20T12:15:29.070Z,47.20
2019-01-20T12:17:57.635Z,47.60
2019-01-20T12:20:26.210Z,47.50
2019-01-20T12:22:54.774Z,47.00
2019-01-20T12:25:23.418Z,48.00
2019-01-20T12:27:52.051Z,48.10
2019-01-20T12:30:26.110Z,49.60
2019-01-20T12:32:54.851Z,49.60
2019-01-20T12:35:23.722Z,49.60
2019-01-20T12:37:52.526Z,49.10
2019-01-20T12:40:29.822Z,49.30
2019-01-20T12:42:58.540Z,49.10
2019-01-20T12:45:27.271Z,49.30
2019-01-20T12:47:55.915Z,49.40
2019-01-20T12:50:24.485Z,49.90
2019-01-20T12:52:53.130Z,51.30
2019-01-20T12:55:21.834Z,50.50
2019-01-20T12:57:50.558Z,50.20
2019-01-20T13:00:20.463Z,50.50
2019-01-20T13:02:49.192Z,52.80
2019-01-20T13:05:17.934Z,53.10
2019-01-20T13:07:46.566Z,53.80
2019-01-20T13:10:21.559Z,54.00
2019-01-20T13:12:50.254Z,55.40
2019-01-20T13:15:23.239Z,55.70
2019-01-20T13:17:51.874Z,56.60
2019-01-20T13:20:25.283Z,57.30
2019-01-20T13:22:53.916Z,57.30
2019-01-20T13:25:27.618Z,58.10
2019-01-20T13:27:56.194Z,59.20
2019-01-20T13:30:26.804Z,59.70
2019-01-20T13:32:55.630Z,60.40
2019-01-20T13:35:24.833Z,61.00
2019-01-20T13:38:07.770Z,60.40
2019-01-20T13:40:42.734Z,61.00
2019-01-20T13:43:11.475Z,61.00
2019-01-20T13:45:40.118Z,62.00
2019-01-20T13:48:08.746Z,62.70
2019-01-20T13:50:37.427Z,63.90
2019-01-20T13:53:06.444Z,64.80
2019-01-20T13:55:35.237Z,65.40
2019-01-20T13:58:04.182Z,65.60
2019-01-20T14:00:32.745Z,67.10
2019-01-20T14:03:01.549Z,66.90
2019-01-20T14:05:30.178Z,67.20
2019-01-20T14:07:58.741Z,68.80
2019-01-20T14:10:27.698Z,70.40
2019-01-20T14:12:56.410Z,70.10
2019-01-20T14:15:24.975Z,70.60
2019-01-20T14:17:53.555Z,71.00
2019-01-20T14:20:23.963Z,73.30
2019-01-20T14:22:52.614Z,74.00
2019-01-20T14:25:23.430Z,74.00
2019-01-20T14:27:52.139Z,75.40
2019-01-20T14:30:23.491Z,74.70
2019-01-20T14:32:52.130Z,75.70
2019-01-20T14:35:20.773Z,76.80
2019-01-20T14:37:49.424Z,77.50
2019-01-20T14:40:19.730Z,77.40
2019-01-20T14:42:48.962Z,79.90
2019-01-20T14:45:18.982Z,79.40
2019-01-20T14:47:48.102Z,79.90
2019-01-20T14:50:19.770Z,79.50
2019-01-20T14:52:48.405Z,82.10
2019-01-20T14:55:17.455Z,81.90
2019-01-20T14:57:46.022Z,84.10
2019-01-20T15:00:18.002Z,82.30
2019-01-20T15:02:46.650Z,83.30
2019-01-20T15:05:16.511Z,82.80
2019-01-20T15:07:45.726Z,84.70
2019-01-20T15:10:16.136Z,86.10
2019-01-20T15:12:44.949Z,84.70
2019-01-20T15:15:25.514Z,85.90
2019-01-20T15:17:54.086Z,86.70
2019-01-20T15:20:22.736Z,85.90
2019-01-20T15:22:51.303Z,86.60
2019-01-20T15:25:20.621Z,87.90
2019-01-20T15:27:49.838Z,87.80
2019-01-20T15:30:24.548Z,87.10
2019-01-20T15:32:53.964Z,88.60
2019-01-20T15:35:22.703Z,87.70
2019-01-20T15:37:51.353Z,87.30
2019-01-20T15:40:22.172Z,88.90
2019-01-20T15:42:50.826Z,90.00
2019-01-20T15:45:23.708Z,90.00
2019-01-20T15:47:52.758Z,90.00
2019-01-20T15:50:24.107Z,90.60
2019-01-20T15:52:52.962Z,90.80
2019-01-20T15:55:21.619Z,90.80
2019-01-20T15:57:50.215Z,91.00
2019-01-20T16:00:32.373Z,91.30
2019-01-20T16:03:01.109Z,91.30
2019-01-20T16:05:30.110Z,91.40
2019-01-20T16:07:58.822Z,92.00
2019-01-20T16:10:27.545Z,91.90
2019-01-20T16:12:56.562Z,92.30
2019-01-20T16:15:30.406Z,92.60
2019-01-20T16:17:58.988Z,92.70
2019-01-20T16:20:28.420Z,93.10
2019-01-20T16:22:57.331Z,93.20
2019-01-20T16:25:28.539Z,93.50
2019-01-20T16:27:57.152Z,93.70
2019-01-20T16:30:31.558Z,93.80
2019-01-20T16:33:00.210Z,93.70
2019-01-20T16:35:28.787Z,94.50
2019-01-20T16:37:58.819Z,94.50
2019-01-20T16:40:27.558Z,94.50
2019-01-20T16:42:56.210Z,94.90
2019-01-20T16:45:33.030Z,94.50
2019-01-20T16:48:01.117Z,94.70
2019-01-20T16:50:29.822Z,95.20
2019-01-20T16:52:58.533Z,94.90
2019-01-20T16:55:28.087Z,94.50
2019-01-20T16:57:56.730Z,94.60
2019-01-20T17:00:37.191Z,94.70
2019-01-20T17:03:05.999Z,94.70
2019-01-20T17:05:34.579Z,95.50
2019-01-20T17:08:03.390Z,95.20
2019-01-20T17:10:34.618Z,95.30
2019-01-20T17:13:03.338Z,95.50
2019-01-20T17:15:39.679Z,95.40
2019-01-20T17:18:09.080Z,95.70
2019-01-20T17:20:37.882Z,95.80
2019-01-20T17:23:06.902Z,95.80
2019-01-20T17:25:35.711Z,96.00
2019-01-20T17:28:04.630Z,95.90
2019-01-20T17:30:35.342Z,96.20
2019-01-20T17:33:05.370Z,96.50
2019-01-20T17:35:33.936Z,96.40
2019-01-20T17:38:02.590Z,96.30
2019-01-20T17:40:31.346Z,96.20
2019-01-20T17:42:59.989Z,96.50
2019-01-20T17:45:34.394Z,96.50
2019-01-20T17:48:03.032Z,96.40
2019-01-20T17:50:37.219Z,96.40
2019-01-20T17:53:06.962Z,96.50
2019-01-20T17:55:35.780Z,96.50
2019-01-20T17:58:05.199Z,96.50
2019-01-20T18:00:40.226Z,96.60
2019-01-20T18:03:09.635Z,96.80
2019-01-20T18:05:38.566Z,96.90
2019-01-20T18:08:07.215Z,96.90
2019-01-20T18:10:35.871Z,96.90
2019-01-20T18:13:05.107Z,96.80
2019-01-20T18:15:33.738Z,96.80
2019-01-20T18:18:02.463Z,96.90
2019-01-20T18:20:32.574Z,97.00
2019-01-20T18:23:01.298Z,97.10
2019-01-20T18:25:29.938Z,97.20
2019-01-20T18:27:58.885Z,97.60
2019-01-20T18:30:30.065Z,97.80
2019-01-20T18:32:58.710Z,97.90
2019-01-20T18:35:28.343Z,97.80
2019-01-20T18:37:56.978Z,97.80
2019-01-20T18:40:44.966Z,97.90
2019-01-20T18:43:13.539Z,98.20
2019-01-20T18:45:42.122Z,98.20
2019-01-20T18:48:10.833Z,98.30
2019-01-20T18:50:39.582Z,98.40
2019-01-20T18:53:08.222Z,98.40
2019-01-20T18:55:37.055Z,98.70
2019-01-20T18:58:06.382Z,98.80
2019-01-20T19:00:38.018Z,98.80
2019-01-20T19:03:06.667Z,99.30
2019-01-20T19:05:35.302Z,99.20
2019-01-20T19:08:04.114Z,99.30
2019-01-20T19:10:32.761Z,99.20
2019-01-20T19:13:01.338Z,99.00
2019-01-20T19:15:30.050Z,99.30
2019-01-20T19:17:58.841Z,99.20
2019-01-20T19:20:27.843Z,99.20
2019-01-20T19:22:58.557Z,99.00
2019-01-20T19:25:27.296Z,99.00
2019-01-20T19:27:56.005Z,98.70
2019-01-20T19:30:30.443Z,98.70
2019-01-20T19:32:59.263Z,98.60
2019-01-20T19:35:28.401Z,98.50
2019-01-20T19:37:57.189Z,98.40
2019-01-20T19:40:25.994Z,98.40
2019-01-20T19:42:54.645Z,98.50
2019-01-20T19:45:23.370Z,98.50
2019-01-20T19:47:52.085Z,98.50
2019-01-20T19:50:21.082Z,98.50
2019-01-20T19:53:09.002Z,98.70
2019-01-20T19:55:37.647Z,98.70
2019-01-20T19:58:06.571Z,98.70
2019-01-20T20:00:35.534Z,98.80
2019-01-20T20:03:04.450Z,98.60
2019-01-20T20:05:33.362Z,99.00
2019-01-20T20:08:02.114Z,99.00
2019-01-20T20:10:30.742Z,98.90
2019-01-20T20:12:59.577Z,98.80
2019-01-20T20:15:28.512Z,98.80
2019-01-20T20:17:57.223Z,99.00
2019-01-20T20:20:25.938Z,99.10
2019-01-20T20:22:54.578Z,99.30
2019-01-20T20:25:24.870Z,99.40
2019-01-20T20:27:54.674Z,99.10
2019-01-20T20:30:28.631Z,99.10
2019-01-20T20:32:57.458Z,99.10
2019-01-20T20:35:26.570Z,99.30
2019-01-20T20:37:55.391Z,99.70
2019-01-20T20:40:24.094Z,99.90
2019-01-20T20:42:52.934Z,99.90
2019-01-20T20:45:24.239Z,99.90
2019-01-20T20:47:52.950Z,99.90
2019-01-20T20:50:21.967Z,99.80
2019-01-20T20:52:50.919Z,99.90
2019-01-20T20:55:19.595Z,99.50
2019-01-20T20:57:48.253Z,99.60
2019-01-20T21:00:28.395Z,99.50
2019-01-20T21:02:57.342Z,99.60
2019-01-20T21:05:25.915Z,99.60
2019-01-20T21:07:54.582Z,99.60
2019-01-20T21:10:23.383Z,99.40
2019-01-20T21:12:52.023Z,99.40
2019-01-20T21:15:20.739Z,99.60
2019-01-20T21:17:49.378Z,99.60
2019-01-20T21:20:22.754Z,99.40
2019-01-20T21:22:51.464Z,99.30
2019-01-20T21:25:20.158Z,99.20
2019-01-20T21:27:48.820Z,99.20
2019-01-20T21:30:26.061Z,99.10
2019-01-20T21:32:54.679Z,99.50
2019-01-20T21:35:23.320Z,99.70
2019-01-20T21:37:51.970Z,99.30
2019-01-20T21:40:21.182Z,99.40
2019-01-20T21:42:49.763Z,99.30
2019-01-20T21:45:19.067Z,99.40
2019-01-20T21:47:47.793Z,99.30
2019-01-20T21:50:21.665Z,99.50
2019-01-20T21:52:50.970Z,99.50
2019-01-20T21:55:19.807Z,99.40
2019-01-20T21:57:48.450Z,99.50
2019-01-20T22:00:21.962Z,99.60
2019-01-20T22:02:50.749Z,99.90
2019-01-20T22:05:19.372Z,99.90
2019-01-20T22:07:48.149Z,99.90
2019-01-20T22:10:19.783Z,99.90
2019-01-20T22:12:48.422Z,99.90
2019-01-20T22:15:17.413Z,99.90
2019-01-20T22:17:47.034Z,99.90
2019-01-20T22:20:20.526Z,99.90
2019-01-20T22:22:49.636Z,99.90
2019-01-20T22:25:18.438Z,99.90
2019-01-20T22:27:47.181Z,99.90
2019-01-20T22:30:21.527Z,99.90
2019-01-20T22:32:50.114Z,99.90
2019-01-20T22:35:18.678Z,99.90
2019-01-20T22:37:47.394Z,99.90
2019-01-20T22:40:17.802Z,99.90
2019-01-20T22:42:46.562Z,99.90
2019-01-20T22:45:17.578Z,99.90
2019-01-20T22:47:46.217Z,99.90
2019-01-20T22:50:15.045Z,99.90
2019-01-20T22:52:43.678Z,99.90
2019-01-20T22:55:16.575Z,99.90
2019-01-20T22:57:45.681Z,99.90
2019-01-20T23:00:26.353Z,99.90
2019-01-20T23:02:55.050Z,99.90
2019-01-20T23:05:23.626Z,99.90
2019-01-20T23:07:52.197Z,99.90
2019-01-20T23:10:20.818Z,99.90
2019-01-20T23:12:49.502Z,99.90
2019-01-20T23:15:18.074Z,99.90
2019-01-20T23:17:46.658Z,99.90
2019-01-20T23:20:17.474Z,99.90
2019-01-20T23:22:46.233Z,99.90
2019-01-20T23:25:14.871Z,99.90
2019-01-20T23:27:43.605Z,99.90
2019-01-20T23:30:14.914Z,99.90
2019-01-20T23:32:43.561Z,99.90
2019-01-20T23:35:12.198Z,99.90
2019-01-20T23:37:41.052Z,99.90
2019-01-20T23:40:14.898Z,99.90
2019-01-20T23:42:43.541Z,99.90
2019-01-20T23:45:13.104Z,99.90
2019-01-20T23:47:41.744Z,99.90
2019-01-20T23:50:17.614Z,99.90
2019-01-20T23:52:46.282Z,99.90
2019-01-20T23:55:15.164Z,99.90
2019-01-20T23:57:43.746Z,99.90
